createdAt,value
2018-06-05T00:01:25.867Z,19.00
2018-06-05T00:03:54.246Z,19.00
2018-06-05T00:06:22.720Z,19.00
2018-06-05T00:08:51.096Z,19.00
2018-06-05T00:11:19.512Z,19.00
2018-06-05T00:13:48.056Z,19.00
2018-06-05T00:16:16.509Z,19.00
2018-06-05T00:18:44.922Z,18.90
2018-06-05T00:21:13.305Z,18.90
2018-06-05T00:23:41.659Z,18.90
2018-06-05T00:26:10.089Z,18.90
2018-06-05T00:28:38.492Z,18.90
2018-06-05T00:31:06.916Z,18.90
2018-06-05T00:33:35.414Z,18.90
2018-06-05T00:36:03.935Z,18.90
2018-06-05T00:38:32.333Z,18.90
2018-06-05T00:41:00.735Z,18.90
2018-06-05T00:43:29.220Z,18.90
2018-06-05T00:45:57.638Z,18.90
2018-06-05T00:48:25.981Z,18.90
2018-06-05T00:50:54.327Z,18.90
2018-06-05T00:53:22.664Z,18.90
2018-06-05T00:55:51.069Z,18.90
2018-06-05T00:58:19.404Z,18.80
2018-06-05T01:00:47.748Z,18.80
2018-06-05T01:03:16.068Z,18.80
2018-06-05T01:05:44.508Z,18.80
2018-06-05T01:08:13.058Z,18.80
2018-06-05T01:10:41.531Z,18.80
2018-06-05T01:13:09.863Z,18.80
2018-06-05T01:15:38.303Z,18.80
2018-06-05T01:18:06.686Z,18.80
2018-06-05T01:20:35.104Z,18.80
2018-06-05T01:23:03.429Z,18.80
2018-06-05T01:25:31.800Z,18.80
2018-06-05T01:28:00.521Z,18.80
2018-06-05T01:30:28.941Z,18.80
2018-06-05T01:32:57.333Z,18.70
2018-06-05T01:35:25.652Z,18.70
2018-06-05T01:37:54.096Z,18.70
2018-06-05T01:40:22.474Z,18.70
2018-06-05T01:42:50.794Z,18.70
2018-06-05T01:45:19.148Z,18.70
2018-06-05T01:47:47.585Z,18.60
2018-06-05T01:50:16.006Z,18.60
2018-06-05T01:52:44.619Z,18.60
2018-06-05T01:55:13.184Z,18.60
2018-06-05T01:57:41.588Z,18.60
2018-06-05T02:00:09.971Z,18.60
2018-06-05T02:02:38.341Z,18.60
2018-06-05T02:05:06.690Z,18.60
2018-06-05T02:07:35.210Z,18.60
2018-06-05T02:10:03.612Z,18.50
2018-06-05T02:12:32.037Z,18.50
2018-06-05T02:15:00.434Z,18.50
2018-06-05T02:17:28.756Z,18.50
2018-06-05T02:19:57.204Z,18.50
2018-06-05T02:22:25.649Z,18.50
2018-06-05T02:24:54.008Z,18.50
2018-06-05T02:27:22.454Z,18.50
2018-06-05T02:29:50.793Z,18.50
2018-06-05T02:32:19.203Z,18.50
2018-06-05T02:34:47.581Z,18.50
2018-06-05T02:37:25.821Z,18.50
2018-06-05T02:39:54.501Z,18.50
2018-06-05T02:44:51.121Z,18.50
2018-06-05T02:47:19.482Z,18.40
2018-06-05T02:49:47.896Z,18.40
2018-06-05T02:52:16.258Z,18.40
2018-06-05T02:54:44.748Z,18.40
2018-06-05T02:59:41.216Z,18.40
2018-06-05T03:02:09.568Z,18.40
2018-06-05T03:04:37.941Z,18.40
2018-06-05T03:07:06.402Z,18.30
2018-06-05T03:09:53.454Z,18.30
2018-06-05T03:12:21.950Z,18.30
2018-06-05T03:14:50.270Z,18.30
2018-06-05T03:17:18.733Z,18.30
2018-06-05T03:19:47.052Z,18.20
2018-06-05T03:22:15.458Z,18.20
2018-06-05T03:24:43.906Z,18.20
2018-06-05T03:27:12.260Z,18.20
2018-06-05T03:29:40.650Z,18.20
2018-06-05T03:32:09.050Z,18.20
2018-06-05T03:34:37.499Z,18.20
2018-06-05T03:37:05.886Z,18.10
2018-06-05T03:39:34.212Z,18.10
2018-06-05T03:42:02.597Z,18.20
2018-06-05T03:44:30.924Z,18.10
2018-06-05T03:46:59.264Z,18.10
2018-06-05T03:49:27.661Z,18.10
2018-06-05T03:51:56.026Z,18.10
2018-06-05T03:54:24.379Z,18.10
2018-06-05T03:56:52.692Z,18.10
2018-06-05T03:59:21.064Z,18.10
2018-06-05T04:01:49.440Z,18.10
2018-06-05T04:04:17.822Z,18.10
2018-06-05T04:06:46.301Z,18.10
2018-06-05T04:09:14.976Z,18.10
2018-06-05T04:11:43.436Z,18.10
2018-06-05T04:14:14.245Z,18.10
2018-06-05T04:16:42.984Z,18.10
2018-06-05T04:19:11.390Z,18.10
2018-06-05T04:21:39.800Z,18.10
2018-06-05T04:24:08.213Z,18.10
2018-06-05T04:26:36.590Z,18.10
2018-06-05T04:29:04.973Z,18.10
2018-06-05T04:31:33.304Z,18.10
2018-06-05T04:34:01.677Z,18.10
2018-06-05T04:36:29.984Z,18.10
2018-06-05T04:38:58.328Z,18.10
2018-06-05T04:41:27.052Z,18.10
2018-06-05T04:43:55.559Z,18.00
2018-06-05T04:46:24.138Z,18.00
2018-06-05T04:48:52.640Z,18.10
2018-06-05T04:51:28.181Z,18.10
2018-06-05T04:53:56.826Z,18.10
2018-06-05T04:56:25.167Z,18.10
2018-06-05T04:58:53.500Z,18.10
2018-06-05T05:01:22.963Z,18.10
2018-06-05T05:04:12.005Z,17.90
2018-06-05T05:06:45.048Z,17.90
2018-06-05T05:09:26.780Z,17.90
2018-06-05T05:11:55.123Z,18.00
2018-06-05T05:14:23.531Z,18.00
2018-06-05T05:16:52.020Z,18.00
2018-06-05T05:24:19.556Z,18.00
2018-06-05T05:26:47.948Z,18.00
2018-06-05T05:29:16.460Z,18.00
2018-06-05T05:31:44.877Z,18.00
2018-06-05T05:34:23.371Z,18.00
2018-06-05T05:36:51.786Z,18.00
2018-06-05T05:39:20.619Z,18.00
2018-06-05T05:41:49.134Z,18.10
2018-06-05T05:44:17.440Z,18.00
2018-06-05T05:46:45.835Z,18.10
2018-06-05T05:49:14.181Z,18.00
2018-06-05T05:51:42.607Z,18.00
2018-06-05T05:54:11.081Z,18.00
2018-06-05T05:56:39.494Z,18.00
2018-06-05T05:59:07.933Z,18.00
2018-06-05T06:01:36.331Z,18.00
2018-06-05T06:04:05.107Z,18.10
2018-06-05T06:06:33.556Z,18.00
2018-06-05T06:09:01.947Z,18.00
2018-06-05T06:11:30.368Z,18.00
2018-06-05T06:13:58.684Z,18.00
2018-06-05T06:16:27.129Z,17.90
2018-06-05T06:18:55.578Z,18.00
2018-06-05T06:21:34.205Z,18.00
2018-06-05T06:24:02.536Z,17.90
2018-06-05T06:26:31.073Z,17.90
2018-06-05T06:28:59.482Z,18.00
2018-06-05T06:31:28.910Z,17.90
2018-06-05T06:33:57.428Z,17.90
2018-06-05T06:36:25.761Z,17.90
2018-06-05T06:38:54.244Z,17.90
2018-06-05T06:41:22.794Z,17.90
2018-06-05T06:43:51.320Z,18.00
2018-06-05T06:46:19.817Z,18.00
2018-06-05T06:48:48.337Z,18.00
2018-06-05T06:51:16.721Z,18.00
2018-06-05T06:53:45.190Z,18.10
2018-06-05T06:56:13.645Z,18.10
2018-06-05T06:58:42.159Z,18.10
2018-06-05T07:01:10.520Z,18.10
2018-06-05T07:03:38.964Z,18.10
2018-06-05T07:06:07.370Z,18.20
2018-06-05T07:08:35.809Z,18.20
2018-06-05T07:11:04.252Z,18.20
2018-06-05T07:13:32.691Z,18.20
2018-06-05T07:16:01.078Z,18.30
2018-06-05T07:18:29.448Z,18.30
2018-06-05T07:20:57.896Z,18.30
2018-06-05T07:23:26.301Z,18.30
2018-06-05T07:25:55.186Z,18.30
2018-06-05T07:28:23.588Z,18.30
2018-06-05T07:30:51.950Z,18.30
2018-06-05T07:33:20.704Z,18.30
2018-06-05T07:35:49.056Z,18.30
2018-06-05T07:38:17.403Z,18.40
2018-06-05T07:43:13.847Z,18.40
2018-06-05T07:45:42.221Z,18.40
2018-06-05T07:48:10.605Z,18.40
2018-06-05T07:50:38.953Z,18.40
2018-06-05T07:53:07.343Z,18.50
2018-06-05T07:55:35.749Z,18.50
2018-06-05T07:58:04.068Z,18.50
2018-06-05T08:00:32.440Z,18.50
2018-06-05T08:03:00.823Z,18.60
2018-06-05T08:05:29.357Z,18.60
2018-06-05T08:07:57.736Z,18.60
2018-06-05T08:10:26.101Z,18.70
2018-06-05T08:12:54.532Z,18.70
2018-06-05T08:15:22.909Z,18.70
2018-06-05T08:17:51.421Z,18.70
2018-06-05T08:20:19.826Z,18.70
2018-06-05T08:22:53.506Z,18.60
2018-06-05T08:25:21.877Z,18.50
2018-06-05T08:27:50.297Z,18.50
2018-06-05T08:30:18.830Z,18.50
2018-06-05T08:32:47.149Z,18.60
2018-06-05T08:35:15.590Z,18.60
2018-06-05T08:37:44.012Z,18.70
2018-06-05T08:40:12.359Z,18.70
2018-06-05T08:42:40.781Z,18.80
2018-06-05T08:45:09.270Z,18.80
2018-06-05T08:47:37.764Z,18.90
2018-06-05T08:50:06.160Z,18.90
2018-06-05T08:52:34.660Z,18.90
2018-06-05T08:55:03.084Z,18.80
2018-06-05T08:57:31.573Z,18.80
2018-06-05T09:00:00.076Z,18.80
2018-06-05T09:02:28.807Z,18.80
2018-06-05T09:04:57.256Z,18.80
2018-06-05T09:07:25.600Z,18.70
2018-06-05T09:09:54.133Z,18.70
2018-06-05T09:12:22.531Z,18.70
2018-06-05T09:14:51.060Z,18.80
2018-06-05T09:17:19.445Z,18.90
2018-06-05T09:19:47.807Z,19.00
2018-06-05T09:22:16.500Z,18.80
2018-06-05T09:24:45.307Z,18.80
2018-06-05T09:27:13.740Z,19.00
2018-06-05T09:29:42.072Z,19.10
2018-06-05T09:32:10.480Z,19.20
2018-06-05T09:34:39.172Z,19.30
2018-06-05T09:37:07.662Z,19.30
2018-06-05T09:39:36.088Z,19.40
2018-06-05T09:42:04.457Z,19.30
2018-06-05T09:44:32.907Z,19.40
2018-06-05T09:47:01.265Z,19.50
2018-06-05T09:49:29.613Z,19.50
2018-06-05T09:51:58.092Z,19.50
2018-06-05T09:54:26.394Z,19.60
2018-06-05T09:56:54.947Z,19.60
2018-06-05T09:59:23.493Z,19.70
2018-06-05T10:01:51.850Z,19.70
2018-06-05T10:04:20.289Z,19.80
2018-06-05T10:06:48.721Z,19.80
2018-06-05T10:09:17.246Z,19.90
2018-06-05T10:11:45.642Z,19.90
2018-06-05T10:14:14.062Z,20.00
2018-06-05T10:16:42.520Z,20.00
2018-06-05T10:19:10.966Z,20.00
2018-06-05T10:21:39.326Z,20.00
2018-06-05T10:24:07.932Z,20.00
2018-06-05T10:26:36.348Z,20.00
2018-06-05T10:29:05.297Z,20.10
2018-06-05T10:31:33.760Z,20.10
2018-06-05T10:36:30.418Z,20.20
2018-06-05T10:38:58.932Z,20.20
2018-06-05T10:41:27.412Z,20.20
2018-06-05T10:43:55.732Z,20.30
2018-06-05T10:46:24.143Z,20.30
2018-06-05T10:48:52.494Z,20.50
2018-06-05T10:51:20.864Z,20.60
2018-06-05T10:53:49.354Z,20.60
2018-06-05T10:56:17.761Z,20.60
2018-06-05T10:58:46.132Z,20.50
2018-06-05T11:01:14.533Z,20.50
2018-06-05T11:03:42.977Z,20.60
2018-06-05T11:06:11.543Z,20.70
2018-06-05T11:08:39.940Z,21.00
2018-06-05T11:11:08.485Z,21.30
2018-06-05T11:13:37.030Z,21.60
2018-06-05T11:16:05.617Z,21.90
2018-06-05T11:18:34.134Z,22.10
2018-06-05T11:21:02.616Z,22.20
2018-06-05T11:23:31.298Z,22.40
2018-06-05T11:25:59.657Z,22.50
2018-06-05T11:28:32.472Z,22.60
2018-06-05T11:31:06.497Z,22.70
2018-06-05T11:33:34.888Z,22.80
2018-06-05T11:36:03.306Z,22.80
2018-06-05T11:38:31.815Z,22.90
2018-06-05T11:41:00.210Z,23.00
2018-06-05T11:43:28.604Z,23.00
2018-06-05T11:48:25.012Z,23.20
2018-06-05T11:50:53.308Z,23.20
2018-06-05T11:53:21.704Z,23.20
2018-06-05T11:55:50.148Z,23.20
2018-06-05T11:58:18.626Z,23.30
2018-06-05T12:00:48.299Z,23.20
2018-06-05T12:03:17.522Z,23.30
2018-06-05T12:05:46.734Z,23.50
2018-06-05T12:08:15.079Z,23.60
2018-06-05T12:10:43.786Z,23.70
2018-06-05T12:13:12.290Z,23.90
2018-06-05T12:15:40.749Z,24.00
2018-06-05T12:18:10.760Z,24.20
2018-06-05T12:20:48.839Z,24.30
2018-06-05T12:23:22.019Z,24.40
2018-06-05T12:25:50.502Z,24.40
2018-06-05T12:28:19.461Z,24.50
2018-06-05T12:30:50.934Z,24.40
2018-06-05T12:33:21.272Z,24.60
2018-06-05T12:35:49.770Z,24.70
2018-06-05T12:38:18.188Z,24.80
2018-06-05T12:40:46.676Z,24.50
2018-06-05T12:43:17.018Z,24.30
2018-06-05T12:45:47.820Z,24.30
2018-06-05T12:48:22.585Z,24.50
2018-06-05T12:50:51.042Z,24.60
2018-06-05T12:53:19.623Z,24.80
2018-06-05T12:55:48.230Z,25.00
2018-06-05T12:58:16.685Z,25.20
2018-06-05T13:00:45.202Z,25.20
2018-06-05T13:03:13.608Z,25.30
2018-06-05T13:05:42.233Z,25.30
2018-06-05T13:08:10.760Z,25.30
2018-06-05T13:10:39.265Z,25.30
2018-06-05T13:13:08.407Z,25.50
2018-06-05T13:15:36.871Z,25.60
2018-06-05T13:18:05.770Z,25.60
2018-06-05T13:20:34.204Z,25.50
2018-06-05T13:23:03.488Z,25.40
2018-06-05T13:25:31.949Z,25.30
2018-06-05T13:28:00.640Z,25.50
2018-06-05T13:30:28.991Z,25.60
2018-06-05T13:32:57.655Z,25.80
2018-06-05T13:35:26.860Z,25.80
2018-06-05T13:37:55.831Z,25.80
2018-06-05T13:40:24.264Z,26.00
2018-06-05T13:42:52.654Z,26.20
2018-06-05T13:45:20.962Z,26.30
2018-06-05T13:47:49.307Z,26.50
2018-06-05T13:50:18.698Z,26.70
2018-06-05T13:52:48.372Z,26.70
2018-06-05T13:55:17.524Z,26.70
2018-06-05T13:57:46.955Z,26.70
2018-06-05T14:00:15.438Z,26.80
2018-06-05T14:02:45.696Z,26.80
2018-06-05T14:05:15.118Z,26.90
2018-06-05T14:07:46.848Z,27.00
2018-06-05T14:10:16.250Z,27.20
2018-06-05T14:12:45.486Z,27.30
2018-06-05T14:15:14.166Z,27.30
2018-06-05T14:17:42.668Z,27.40
2018-06-05T14:20:11.386Z,27.40
2018-06-05T14:22:39.729Z,27.40
2018-06-05T14:25:09.221Z,27.50
2018-06-05T14:27:37.716Z,27.50
2018-06-05T14:30:06.142Z,27.40
2018-06-05T14:32:34.743Z,27.40
2018-06-05T14:35:04.633Z,27.40
2018-06-05T14:37:33.382Z,27.50
2018-06-05T14:40:01.725Z,27.40
2018-06-05T14:42:30.157Z,27.40
2018-06-05T14:44:58.549Z,27.50
2018-06-05T14:47:27.096Z,27.40
2018-06-05T14:49:55.681Z,27.00
2018-06-05T14:52:24.204Z,26.40
2018-06-05T14:54:53.101Z,26.00
2018-06-05T14:57:21.530Z,25.90
2018-06-05T14:59:50.593Z,25.90
2018-06-05T15:02:19.201Z,26.00
2018-06-05T15:04:47.722Z,26.20
2018-06-05T15:07:16.795Z,26.20
2018-06-05T15:09:46.548Z,26.20
2018-06-05T15:12:17.474Z,26.30
2018-06-05T15:14:45.877Z,26.50
2018-06-05T15:17:15.273Z,26.50
2018-06-05T15:19:43.712Z,26.50
2018-06-05T15:22:12.251Z,26.60
2018-06-05T15:24:41.054Z,26.60
2018-06-05T15:27:09.932Z,26.70
2018-06-05T15:29:41.077Z,26.70
2018-06-05T15:32:09.611Z,26.80
2018-06-05T15:34:38.048Z,26.70
2018-06-05T15:37:16.493Z,26.70
2018-06-05T15:39:44.992Z,26.70
2018-06-05T15:42:13.377Z,26.70
2018-06-05T15:44:41.876Z,26.60
2018-06-05T15:47:10.489Z,26.60
2018-06-05T15:49:38.994Z,26.70
2018-06-05T15:52:07.385Z,26.80
2018-06-05T15:54:35.790Z,26.90
2018-06-05T15:57:13.907Z,26.90
2018-06-05T15:59:48.229Z,26.80
2018-06-05T16:02:16.797Z,26.90
2018-06-05T16:04:55.011Z,26.90
2018-06-05T16:07:33.660Z,27.00
2018-06-05T16:10:12.352Z,27.00
2018-06-05T16:12:40.937Z,27.10
2018-06-05T16:15:09.387Z,27.20
2018-06-05T16:17:37.825Z,26.90
2018-06-05T16:20:12.272Z,26.60
2018-06-05T16:22:40.601Z,26.40
2018-06-05T16:25:09.174Z,26.30
2018-06-05T16:27:37.662Z,26.20
2018-06-05T16:30:11.719Z,26.20
2018-06-05T16:32:40.065Z,26.20
2018-06-05T16:35:08.700Z,26.20
2018-06-05T16:37:37.213Z,26.30
2018-06-05T16:40:05.916Z,26.30
2018-06-05T16:45:02.543Z,26.40
2018-06-05T16:47:32.905Z,26.50
2018-06-05T16:50:01.406Z,26.50
2018-06-05T16:52:30.033Z,26.40
2018-06-05T16:54:59.541Z,26.50
2018-06-05T17:00:06.323Z,26.60
2018-06-05T17:02:38.833Z,26.60
2018-06-05T17:05:07.252Z,26.70
2018-06-05T17:07:35.678Z,26.70
2018-06-05T17:10:13.833Z,26.70
2018-06-05T17:12:42.288Z,26.80
2018-06-05T17:15:12.829Z,26.80
2018-06-05T17:17:49.283Z,26.80
2018-06-05T17:20:26.974Z,26.70
2018-06-05T17:22:57.424Z,26.70
2018-06-05T17:25:27.256Z,26.60
2018-06-05T17:27:58.515Z,26.40
2018-06-05T17:32:55.344Z,26.20
2018-06-05T17:35:25.049Z,26.10
2018-06-05T17:37:55.001Z,26.00
2018-06-05T17:40:23.420Z,25.90
2018-06-05T17:42:57.621Z,25.70
2018-06-05T17:45:26.093Z,25.50
2018-06-05T17:47:54.985Z,25.40
2018-06-05T17:50:23.791Z,25.20
2018-06-05T17:52:53.026Z,25.20
2018-06-05T17:55:22.093Z,25.20
2018-06-05T17:57:51.001Z,25.20
2018-06-05T18:00:19.518Z,25.30
2018-06-05T18:02:48.389Z,25.30
2018-06-05T18:05:26.524Z,25.20
2018-06-05T18:07:55.341Z,25.30
2018-06-05T18:10:25.357Z,25.20
2018-06-05T18:12:54.379Z,25.20
2018-06-05T18:15:22.762Z,25.10
2018-06-05T18:17:51.305Z,25.00
2018-06-05T18:20:20.212Z,24.90
2018-06-05T18:22:48.932Z,24.90
2018-06-05T18:25:17.657Z,24.70
2018-06-05T18:27:46.194Z,24.70
2018-06-05T18:30:15.165Z,24.70
2018-06-05T18:32:43.612Z,24.70
2018-06-05T18:35:12.013Z,24.60
2018-06-05T18:37:40.477Z,24.50
2018-06-05T18:40:09.058Z,24.50
2018-06-05T18:42:37.456Z,24.50
2018-06-05T18:45:06.067Z,24.50
2018-06-05T18:47:34.620Z,24.50
2018-06-05T18:50:03.042Z,24.50
2018-06-05T18:52:36.694Z,24.50
2018-06-05T18:55:05.092Z,24.30
2018-06-05T18:57:33.502Z,24.20
2018-06-05T19:02:30.604Z,23.90
2018-06-05T19:05:00.460Z,23.90
2018-06-05T19:07:31.103Z,23.80
2018-06-05T19:10:02.420Z,23.70
2018-06-05T19:12:31.290Z,23.60
2018-06-05T19:14:59.814Z,23.50
2018-06-05T19:17:28.450Z,23.40
2018-06-05T19:19:57.258Z,23.30
2018-06-05T19:22:26.452Z,23.20
2018-06-05T19:24:55.200Z,23.20
2018-06-05T19:27:23.891Z,23.20
2018-06-05T19:29:52.666Z,23.20
2018-06-05T19:32:21.318Z,23.20
2018-06-05T19:34:50.836Z,23.20
2018-06-05T19:37:19.560Z,23.10
2018-06-05T19:39:47.943Z,23.00
2018-06-05T19:42:17.789Z,23.00
2018-06-05T19:44:54.124Z,22.90
2018-06-05T19:47:22.709Z,22.80
2018-06-05T19:49:53.584Z,22.70
2018-06-05T19:52:24.343Z,22.60
2018-06-05T19:55:03.113Z,22.50
2018-06-05T19:57:32.365Z,22.50
2018-06-05T20:00:00.889Z,22.40
2018-06-05T20:02:29.500Z,22.40
2018-06-05T20:04:58.178Z,22.30
2018-06-05T20:07:26.923Z,22.30
2018-06-05T20:10:18.358Z,22.30
2018-06-05T20:12:49.603Z,22.20
2018-06-05T20:15:49.034Z,22.10
2018-06-05T20:18:17.854Z,22.00
2018-06-05T20:20:46.555Z,22.00
2018-06-05T20:23:27.413Z,22.00
2018-06-05T20:25:56.561Z,22.10
2018-06-05T20:28:32.843Z,22.10
2018-06-05T20:31:02.413Z,22.20
2018-06-05T20:33:31.249Z,22.20
2018-06-05T20:36:05.705Z,22.20
2018-06-05T20:38:34.552Z,22.30
2018-06-05T20:41:03.742Z,22.30
2018-06-05T20:43:32.185Z,22.30
2018-06-05T20:46:00.693Z,22.30
2018-06-05T20:48:29.105Z,22.20
2018-06-05T20:50:57.471Z,22.20
2018-06-05T20:53:26.110Z,22.20
2018-06-05T20:55:54.753Z,22.20
2018-06-05T20:58:23.185Z,22.20
2018-06-05T21:01:01.106Z,22.20
2018-06-05T21:03:32.723Z,22.20
2018-06-05T21:06:01.226Z,22.20
2018-06-05T21:08:29.668Z,22.10
2018-06-05T21:10:58.302Z,22.10
2018-06-05T21:13:26.736Z,22.10
2018-06-05T21:15:55.221Z,22.00
2018-06-05T21:18:23.642Z,22.00
2018-06-05T21:20:52.089Z,22.00
2018-06-05T21:23:20.450Z,22.00
2018-06-05T21:25:49.243Z,22.00
2018-06-05T21:28:17.669Z,22.00
2018-06-05T21:30:46.068Z,21.90
2018-06-05T21:33:14.562Z,21.90
2018-06-05T21:35:42.905Z,21.80
2018-06-05T21:38:11.275Z,21.80
2018-06-05T21:40:39.682Z,21.80
2018-06-05T21:43:08.012Z,21.70
2018-06-05T21:45:36.468Z,21.70
2018-06-05T21:48:05.006Z,21.70
2018-06-05T21:50:33.395Z,21.70
2018-06-05T21:53:02.150Z,21.70
2018-06-05T21:55:30.533Z,21.60
2018-06-05T21:57:58.984Z,21.60
2018-06-05T22:00:27.456Z,21.60
2018-06-05T22:02:55.962Z,21.60
2018-06-05T22:05:24.424Z,21.50
2018-06-05T22:07:52.925Z,21.50
2018-06-05T22:10:21.698Z,21.50
2018-06-05T22:12:50.120Z,21.50
2018-06-05T22:15:18.552Z,21.50
2018-06-05T22:17:46.962Z,21.40
2018-06-05T22:20:15.420Z,21.40
2018-06-05T22:22:44.323Z,21.40
2018-06-05T22:25:12.773Z,21.40
2018-06-05T22:27:41.193Z,21.30
2018-06-05T22:30:09.637Z,21.30
2018-06-05T22:32:38.181Z,21.30
2018-06-05T22:35:06.643Z,21.20
2018-06-05T22:37:35.221Z,21.20
2018-06-05T22:40:03.757Z,21.20
2018-06-05T22:42:32.244Z,21.20
2018-06-05T22:45:01.759Z,21.10
2018-06-05T22:47:30.277Z,21.10
2018-06-05T22:49:58.713Z,21.10
2018-06-05T22:52:27.186Z,21.10
2018-06-05T22:54:56.497Z,21.00
2018-06-05T22:57:24.843Z,21.00
2018-06-05T22:59:53.246Z,21.00
2018-06-05T23:02:22.094Z,20.90
2018-06-05T23:04:50.537Z,20.90
2018-06-05T23:07:18.991Z,20.90
2018-06-05T23:09:47.490Z,20.90
2018-06-05T23:12:15.901Z,20.90
2018-06-05T23:14:44.314Z,20.80
2018-06-05T23:17:12.697Z,20.80
2018-06-05T23:19:41.290Z,20.80
2018-06-05T23:22:09.718Z,20.70
2018-06-05T23:24:38.232Z,20.80
2018-06-05T23:27:06.573Z,20.70
2018-06-05T23:29:35.024Z,20.70
2018-06-05T23:32:03.540Z,20.70
2018-06-05T23:34:32.005Z,20.60
2018-06-05T23:37:00.432Z,20.60
2018-06-05T23:39:28.857Z,20.60
2018-06-05T23:41:57.301Z,20.60
2018-06-05T23:44:25.765Z,20.50
2018-06-05T23:46:54.219Z,20.50
2018-06-05T23:49:22.650Z,20.50
2018-06-05T23:51:55.336Z,20.50
2018-06-05T23:54:23.706Z,20.40
2018-06-05T23:56:52.073Z,20.40
2018-06-05T23:59:20.491Z,20.40
